sensor_id;sensor_type;location;lat;lon;timestamp;P1;durP1;ratioP1;P2;durP2;ratioP2
55053;SDS011;40954;45.668;18.980;2022-11-20T00:02:25;22.60;;;17.35;;
55053;SDS011;40954;45.668;18.980;2022-11-20T00:04:51;17.98;;;14.75;;
55053;SDS011;40954;45.668;18.980;2022-11-20T00:07:17;19.02;;;15.25;;
55053;SDS011;40954;45.668;18.980;2022-11-20T00:09:43;20.98;;;14.02;;
55053;SDS011;40954;45.668;18.980;2022-11-20T00:12:09;19.38;;;15.57;;
55053;SDS011;40954;45.668;18.980;2022-11-20T00:14:36;28.63;;;12.38;;
55053;SDS011;40954;45.668;18.980;2022-11-20T00:17:02;20.33;;;15.18;;
55053;SDS011;40954;45.668;18.980;2022-11-20T00:19:28;21.80;;;15.98;;
55053;SDS011;40954;45.668;18.980;2022-11-20T00:21:55;24.00;;;15.52;;
55053;SDS011;40954;45.668;18.980;2022-11-20T00:24:21;17.88;;;14.63;;
55053;SDS011;40954;45.668;18.980;2022-11-20T00:26:47;19.13;;;14.90;;
55053;SDS011;40954;45.668;18.980;2022-11-20T00:29:13;20.52;;;16.15;;
55053;SDS011;40954;45.668;18.980;2022-11-20T00:31:39;20.25;;;15.38;;
55053;SDS011;40954;45.668;18.980;2022-11-20T00:34:05;23.10;;;15.73;;
55053;SDS011;40954;45.668;18.980;2022-11-20T00:36:32;22.45;;;16.90;;
55053;SDS011;40954;45.668;18.980;2022-11-20T00:38:58;21.67;;;15.70;;
55053;SDS011;40954;45.668;18.980;2022-11-20T00:41:28;22.63;;;15.98;;
55053;SDS011;40954;45.668;18.980;2022-11-20T00:43:55;22.63;;;17.17;;
55053;SDS011;40954;45.668;18.980;2022-11-20T00:46:22;21.85;;;16.95;;
55053;SDS011;40954;45.668;18.980;2022-11-20T00:48:48;23.33;;;15.60;;
55053;SDS011;40954;45.668;18.980;2022-11-20T00:51:16;25.48;;;16.25;;
55053;SDS011;40954;45.668;18.980;2022-11-20T00:53:42;21.17;;;15.98;;
55053;SDS011;40954;45.668;18.980;2022-11-20T00:56:12;23.77;;;16.85;;
55053;SDS011;40954;45.668;18.980;2022-11-20T00:58:39;20.88;;;15.82;;
55053;SDS011;40954;45.668;18.980;2022-11-20T01:01:07;19.08;;;15.75;;
55053;SDS011;40954;45.668;18.980;2022-11-20T01:03:34;19.67;;;15.88;;
55053;SDS011;40954;45.668;18.980;2022-11-20T01:06:05;23.42;;;16.10;;
55053;SDS011;40954;45.668;18.980;2022-11-20T01:08:34;20.83;;;16.95;;
55053;SDS011;40954;45.668;18.980;2022-11-20T01:11:05;21.58;;;16.92;;
55053;SDS011;40954;45.668;18.980;2022-11-20T01:13:31;21.95;;;16.52;;
55053;SDS011;40954;45.668;18.980;2022-11-20T01:16:09;23.23;;;17.75;;
55053;SDS011;40954;45.668;18.980;2022-11-20T01:18:35;23.10;;;17.42;;
55053;SDS011;40954;45.668;18.980;2022-11-20T01:21:03;25.52;;;17.08;;
55053;SDS011;40954;45.668;18.980;2022-11-20T01:23:33;25.65;;;17.70;;
55053;SDS011;40954;45.668;18.980;2022-11-20T01:26:00;25.02;;;16.67;;
55053;SDS011;40954;45.668;18.980;2022-11-20T01:28:27;26.92;;;17.60;;
55053;SDS011;40954;45.668;18.980;2022-11-20T01:30:54;23.63;;;17.67;;
55053;SDS011;40954;45.668;18.980;2022-11-20T01:33:20;23.50;;;16.77;;
55053;SDS011;40954;45.668;18.980;2022-11-20T01:35:46;24.33;;;16.73;;
55053;SDS011;40954;45.668;18.980;2022-11-20T01:38:12;26.65;;;17.83;;
55053;SDS011;40954;45.668;18.980;2022-11-20T01:40:38;24.23;;;17.65;;
55053;SDS011;40954;45.668;18.980;2022-11-20T01:43:14;26.55;;;18.42;;
55053;SDS011;40954;45.668;18.980;2022-11-20T01:46:02;24.42;;;17.73;;
55053;SDS011;40954;45.668;18.980;2022-11-20T01:48:33;28.15;;;17.45;;
55053;SDS011;40954;45.668;18.980;2022-11-20T01:51:02;28.48;;;18.58;;
55053;SDS011;40954;45.668;18.980;2022-11-20T01:53:30;24.45;;;17.77;;
55053;SDS011;40954;45.668;18.980;2022-11-20T01:55:57;24.30;;;17.42;;
55053;SDS011;40954;45.668;18.980;2022-11-20T01:58:32;27.15;;;18.45;;
55053;SDS011;40954;45.668;18.980;2022-11-20T02:00:59;25.33;;;17.67;;
55053;SDS011;40954;45.668;18.980;2022-11-20T02:03:25;28.95;;;19.38;;
55053;SDS011;40954;45.668;18.980;2022-11-20T02:08:17;25.40;;;17.60;;
55053;SDS011;40954;45.668;18.980;2022-11-20T02:10:43;23.33;;;17.27;;
55053;SDS011;40954;45.668;18.980;2022-11-20T02:13:10;24.70;;;16.92;;
55053;SDS011;40954;45.668;18.980;2022-11-20T02:15:54;25.55;;;17.58;;
55053;SDS011;40954;45.668;18.980;2022-11-20T02:18:21;26.13;;;16.85;;
55053;SDS011;40954;45.668;18.980;2022-11-20T02:20:48;24.50;;;18.83;;
55053;SDS011;40954;45.668;18.980;2022-11-20T02:23:31;26.90;;;18.58;;
55053;SDS011;40954;45.668;18.980;2022-11-20T02:28:24;26.80;;;17.77;;
55053;SDS011;40954;45.668;18.980;2022-11-20T02:30:50;27.33;;;18.65;;
55053;SDS011;40954;45.668;18.980;2022-11-20T02:33:16;25.85;;;17.85;;
55053;SDS011;40954;45.668;18.980;2022-11-20T02:35:43;27.75;;;19.75;;
55053;SDS011;40954;45.668;18.980;2022-11-20T02:38:10;26.02;;;17.85;;
55053;SDS011;40954;45.668;18.980;2022-11-20T02:40:36;29.55;;;19.55;;
55053;SDS011;40954;45.668;18.980;2022-11-20T02:43:02;27.95;;;18.98;;
55053;SDS011;40954;45.668;18.980;2022-11-20T02:45:28;26.23;;;18.67;;
55053;SDS011;40954;45.668;18.980;2022-11-20T02:47:54;27.83;;;19.30;;
55053;SDS011;40954;45.668;18.980;2022-11-20T02:50:20;30.92;;;20.40;;
55053;SDS011;40954;45.668;18.980;2022-11-20T02:52:46;28.33;;;19.17;;
55053;SDS011;40954;45.668;18.980;2022-11-20T02:55:12;28.83;;;18.67;;
55053;SDS011;40954;45.668;18.980;2022-11-20T02:57:38;28.25;;;19.60;;
55053;SDS011;40954;45.668;18.980;2022-11-20T03:00:04;32.20;;;19.95;;
55053;SDS011;40954;45.668;18.980;2022-11-20T03:02:31;29.08;;;20.08;;
55053;SDS011;40954;45.668;18.980;2022-11-20T03:04:58;28.25;;;19.17;;
55053;SDS011;40954;45.668;18.980;2022-11-20T03:07:24;29.55;;;18.25;;
55053;SDS011;40954;45.668;18.980;2022-11-20T03:09:50;29.40;;;20.20;;
55053;SDS011;40954;45.668;18.980;2022-11-20T03:12:16;27.70;;;19.98;;
55053;SDS011;40954;45.668;18.980;2022-11-20T03:14:42;29.45;;;20.08;;
55053;SDS011;40954;45.668;18.980;2022-11-20T03:17:08;26.30;;;18.60;;
55053;SDS011;40954;45.668;18.980;2022-11-20T03:19:34;27.60;;;18.05;;
55053;SDS011;40954;45.668;18.980;2022-11-20T03:22:00;28.40;;;18.35;;
55053;SDS011;40954;45.668;18.980;2022-11-20T03:24:27;30.10;;;20.02;;
55053;SDS011;40954;45.668;18.980;2022-11-20T03:26:53;26.17;;;18.30;;
55053;SDS011;40954;45.668;18.980;2022-11-20T03:29:19;26.55;;;16.88;;
55053;SDS011;40954;45.668;18.980;2022-11-20T03:31:45;26.60;;;16.70;;
55053;SDS011;40954;45.668;18.980;2022-11-20T03:34:11;29.02;;;19.60;;
55053;SDS011;40954;45.668;18.980;2022-11-20T03:36:38;25.20;;;18.33;;
55053;SDS011;40954;45.668;18.980;2022-11-20T03:39:04;26.10;;;17.88;;
55053;SDS011;40954;45.668;18.980;2022-11-20T03:41:31;24.63;;;16.95;;
55053;SDS011;40954;45.668;18.980;2022-11-20T03:43:58;25.55;;;17.75;;
55053;SDS011;40954;45.668;18.980;2022-11-20T03:46:24;24.73;;;17.05;;
55053;SDS011;40954;45.668;18.980;2022-11-20T03:48:51;26.92;;;18.17;;
55053;SDS011;40954;45.668;18.980;2022-11-20T03:51:23;28.38;;;18.30;;
55053;SDS011;40954;45.668;18.980;2022-11-20T03:53:50;27.48;;;18.17;;
55053;SDS011;40954;45.668;18.980;2022-11-20T03:56:17;27.67;;;18.77;;
55053;SDS011;40954;45.668;18.980;2022-11-20T03:58:44;27.48;;;18.35;;
55053;SDS011;40954;45.668;18.980;2022-11-20T04:01:17;28.70;;;19.02;;
55053;SDS011;40954;45.668;18.980;2022-11-20T04:03:43;31.42;;;20.98;;
55053;SDS011;40954;45.668;18.980;2022-11-20T04:06:14;29.30;;;19.20;;
55053;SDS011;40954;45.668;18.980;2022-11-20T04:08:41;32.05;;;21.98;;
55053;SDS011;40954;45.668;18.980;2022-11-20T04:11:17;29.73;;;20.33;;
55053;SDS011;40954;45.668;18.980;2022-11-20T04:13:46;32.03;;;22.08;;
55053;SDS011;40954;45.668;18.980;2022-11-20T04:16:12;28.40;;;19.50;;
55053;SDS011;40954;45.668;18.980;2022-11-20T04:18:38;27.33;;;18.98;;
55053;SDS011;40954;45.668;18.980;2022-11-20T04:21:04;28.13;;;18.85;;
55053;SDS011;40954;45.668;18.980;2022-11-20T04:23:31;25.52;;;17.10;;
55053;SDS011;40954;45.668;18.980;2022-11-20T04:26:01;24.73;;;17.13;;
55053;SDS011;40954;45.668;18.980;2022-11-20T04:28:27;27.77;;;18.45;;
55053;SDS011;40954;45.668;18.980;2022-11-20T04:30:53;25.77;;;18.02;;
55053;SDS011;40954;45.668;18.980;2022-11-20T04:33:19;27.42;;;17.65;;
55053;SDS011;40954;45.668;18.980;2022-11-20T04:35:45;28.10;;;17.60;;
55053;SDS011;40954;45.668;18.980;2022-11-20T04:38:13;28.60;;;17.95;;
55053;SDS011;40954;45.668;18.980;2022-11-20T04:40:39;25.38;;;17.52;;
55053;SDS011;40954;45.668;18.980;2022-11-20T04:43:05;25.35;;;18.42;;
55053;SDS011;40954;45.668;18.980;2022-11-20T04:45:31;27.67;;;17.98;;
55053;SDS011;40954;45.668;18.980;2022-11-20T04:47:57;24.50;;;17.10;;
55053;SDS011;40954;45.668;18.980;2022-11-20T04:50:23;29.17;;;18.85;;
55053;SDS011;40954;45.668;18.980;2022-11-20T04:52:49;26.58;;;18.23;;
55053;SDS011;40954;45.668;18.980;2022-11-20T04:55:15;26.17;;;17.98;;
55053;SDS011;40954;45.668;18.980;2022-11-20T04:57:41;26.00;;;18.42;;
55053;SDS011;40954;45.668;18.980;2022-11-20T05:00:07;26.23;;;18.63;;
55053;SDS011;40954;45.668;18.980;2022-11-20T05:02:33;24.67;;;17.35;;
55053;SDS011;40954;45.668;18.980;2022-11-20T05:04:59;29.23;;;18.40;;
55053;SDS011;40954;45.668;18.980;2022-11-20T05:07:25;26.15;;;17.92;;
55053;SDS011;40954;45.668;18.980;2022-11-20T05:09:51;24.00;;;17.05;;
55053;SDS011;40954;45.668;18.980;2022-11-20T05:12:17;26.20;;;18.75;;
55053;SDS011;40954;45.668;18.980;2022-11-20T05:14:44;27.73;;;18.23;;
55053;SDS011;40954;45.668;18.980;2022-11-20T05:17:10;26.70;;;18.30;;
55053;SDS011;40954;45.668;18.980;2022-11-20T05:19:36;25.50;;;18.10;;
55053;SDS011;40954;45.668;18.980;2022-11-20T05:22:03;27.65;;;18.15;;
55053;SDS011;40954;45.668;18.980;2022-11-20T05:24:30;27.90;;;17.45;;
55053;SDS011;40954;45.668;18.980;2022-11-20T05:26:56;27.55;;;18.92;;
55053;SDS011;40954;45.668;18.980;2022-11-20T05:29:22;27.95;;;18.52;;
55053;SDS011;40954;45.668;18.980;2022-11-20T05:31:48;26.45;;;17.90;;
55053;SDS011;40954;45.668;18.980;2022-11-20T05:34:14;26.55;;;18.75;;
55053;SDS011;40954;45.668;18.980;2022-11-20T05:36:40;27.27;;;18.08;;
55053;SDS011;40954;45.668;18.980;2022-11-20T05:39:06;26.25;;;17.90;;
55053;SDS011;40954;45.668;18.980;2022-11-20T05:41:32;27.02;;;17.92;;
55053;SDS011;40954;45.668;18.980;2022-11-20T05:43:58;29.83;;;18.25;;
55053;SDS011;40954;45.668;18.980;2022-11-20T05:46:24;28.80;;;17.77;;
55053;SDS011;40954;45.668;18.980;2022-11-20T05:48:51;25.88;;;18.85;;
55053;SDS011;40954;45.668;18.980;2022-11-20T05:51:17;26.67;;;18.02;;
55053;SDS011;40954;45.668;18.980;2022-11-20T05:53:44;26.50;;;19.08;;
55053;SDS011;40954;45.668;18.980;2022-11-20T05:56:11;26.20;;;18.45;;
55053;SDS011;40954;45.668;18.980;2022-11-20T05:58:38;28.38;;;18.80;;
55053;SDS011;40954;45.668;18.980;2022-11-20T06:01:09;26.88;;;18.27;;
55053;SDS011;40954;45.668;18.980;2022-11-20T06:03:35;26.60;;;18.40;;
55053;SDS011;40954;45.668;18.980;2022-11-20T06:06:02;25.92;;;17.65;;
55053;SDS011;40954;45.668;18.980;2022-11-20T06:08:28;24.77;;;16.67;;
55053;SDS011;40954;45.668;18.980;2022-11-20T06:10:54;27.33;;;18.45;;
55053;SDS011;40954;45.668;18.980;2022-11-20T06:13:21;26.45;;;17.95;;
55053;SDS011;40954;45.668;18.980;2022-11-20T06:15:48;27.00;;;18.17;;
55053;SDS011;40954;45.668;18.980;2022-11-20T06:18:14;30.02;;;18.95;;
55053;SDS011;40954;45.668;18.980;2022-11-20T06:20:41;27.15;;;18.88;;
55053;SDS011;40954;45.668;18.980;2022-11-20T06:23:07;30.30;;;20.40;;
55053;SDS011;40954;45.668;18.980;2022-11-20T06:25:33;26.55;;;19.02;;
55053;SDS011;40954;45.668;18.980;2022-11-20T06:27:59;26.35;;;18.23;;
55053;SDS011;40954;45.668;18.980;2022-11-20T06:30:28;27.67;;;18.50;;
55053;SDS011;40954;45.668;18.980;2022-11-20T06:32:54;27.52;;;18.50;;
55053;SDS011;40954;45.668;18.980;2022-11-20T06:35:20;29.02;;;18.13;;
55053;SDS011;40954;45.668;18.980;2022-11-20T06:37:46;27.27;;;18.50;;
55053;SDS011;40954;45.668;18.980;2022-11-20T06:40:12;29.30;;;19.65;;
55053;SDS011;40954;45.668;18.980;2022-11-20T06:42:38;28.25;;;20.23;;
55053;SDS011;40954;45.668;18.980;2022-11-20T06:45:04;32.70;;;19.40;;
55053;SDS011;40954;45.668;18.980;2022-11-20T06:47:30;31.17;;;21.30;;
55053;SDS011;40954;45.668;18.980;2022-11-20T06:49:56;40.53;;;25.92;;
55053;SDS011;40954;45.668;18.980;2022-11-20T06:52:22;40.85;;;26.98;;
55053;SDS011;40954;45.668;18.980;2022-11-20T06:54:48;38.17;;;24.33;;
55053;SDS011;40954;45.668;18.980;2022-11-20T06:57:15;30.13;;;19.92;;
55053;SDS011;40954;45.668;18.980;2022-11-20T06:59:41;32.28;;;22.73;;
55053;SDS011;40954;45.668;18.980;2022-11-20T07:02:10;29.15;;;21.05;;
55053;SDS011;40954;45.668;18.980;2022-11-20T07:04:37;30.75;;;21.15;;
55053;SDS011;40954;45.668;18.980;2022-11-20T07:07:03;33.05;;;21.85;;
55053;SDS011;40954;45.668;18.980;2022-11-20T07:09:29;36.47;;;22.27;;
55053;SDS011;40954;45.668;18.980;2022-11-20T07:11:55;34.90;;;22.60;;
55053;SDS011;40954;45.668;18.980;2022-11-20T07:14:21;33.90;;;23.00;;
55053;SDS011;40954;45.668;18.980;2022-11-20T07:16:47;37.30;;;24.80;;
55053;SDS011;40954;45.668;18.980;2022-11-20T07:19:13;36.53;;;24.35;;
55053;SDS011;40954;45.668;18.980;2022-11-20T07:21:39;35.03;;;24.38;;
55053;SDS011;40954;45.668;18.980;2022-11-20T07:24:05;32.80;;;22.30;;
55053;SDS011;40954;45.668;18.980;2022-11-20T07:26:32;31.83;;;22.67;;
55053;SDS011;40954;45.668;18.980;2022-11-20T07:28:58;34.38;;;22.45;;
55053;SDS011;40954;45.668;18.980;2022-11-20T07:31:24;31.52;;;22.10;;
55053;SDS011;40954;45.668;18.980;2022-11-20T07:33:50;31.60;;;20.08;;
55053;SDS011;40954;45.668;18.980;2022-11-20T07:36:16;32.95;;;20.27;;
55053;SDS011;40954;45.668;18.980;2022-11-20T07:38:42;27.75;;;19.10;;
55053;SDS011;40954;45.668;18.980;2022-11-20T07:41:08;31.63;;;19.10;;
55053;SDS011;40954;45.668;18.980;2022-11-20T07:43:34;28.35;;;19.83;;
55053;SDS011;40954;45.668;18.980;2022-11-20T07:46:00;29.65;;;21.60;;
55053;SDS011;40954;45.668;18.980;2022-11-20T07:48:26;27.40;;;19.10;;
55053;SDS011;40954;45.668;18.980;2022-11-20T07:50:53;33.10;;;20.10;;
55053;SDS011;40954;45.668;18.980;2022-11-20T07:53:19;30.45;;;19.95;;
55053;SDS011;40954;45.668;18.980;2022-11-20T07:55:46;25.55;;;18.02;;
55053;SDS011;40954;45.668;18.980;2022-11-20T07:58:12;26.67;;;18.70;;
55053;SDS011;40954;45.668;18.980;2022-11-20T08:00:41;34.83;;;23.00;;
55053;SDS011;40954;45.668;18.980;2022-11-20T08:03:07;26.73;;;19.50;;
55053;SDS011;40954;45.668;18.980;2022-11-20T08:05:33;30.02;;;18.42;;
55053;SDS011;40954;45.668;18.980;2022-11-20T08:07:59;27.23;;;19.10;;
55053;SDS011;40954;45.668;18.980;2022-11-20T08:10:25;30.60;;;20.67;;
55053;SDS011;40954;45.668;18.980;2022-11-20T08:12:52;26.52;;;19.05;;
55053;SDS011;40954;45.668;18.980;2022-11-20T08:15:38;23.00;;;16.95;;
55053;SDS011;40954;45.668;18.980;2022-11-20T08:18:08;26.15;;;18.70;;
55053;SDS011;40954;45.668;18.980;2022-11-20T08:20:38;28.77;;;18.92;;
55053;SDS011;40954;45.668;18.980;2022-11-20T08:23:04;28.77;;;19.25;;
55053;SDS011;40954;45.668;18.980;2022-11-20T08:25:31;27.45;;;17.38;;
55053;SDS011;40954;45.668;18.980;2022-11-20T08:27:58;26.35;;;17.92;;
55053;SDS011;40954;45.668;18.980;2022-11-20T08:30:25;27.65;;;18.08;;
55053;SDS011;40954;45.668;18.980;2022-11-20T08:32:51;28.05;;;18.00;;
55053;SDS011;40954;45.668;18.980;2022-11-20T08:35:17;32.20;;;20.65;;
55053;SDS011;40954;45.668;18.980;2022-11-20T08:37:46;25.80;;;17.45;;
55053;SDS011;40954;45.668;18.980;2022-11-20T08:40:12;27.33;;;18.00;;
55053;SDS011;40954;45.668;18.980;2022-11-20T08:42:45;24.63;;;16.80;;
55053;SDS011;40954;45.668;18.980;2022-11-20T08:45:11;27.45;;;17.83;;
55053;SDS011;40954;45.668;18.980;2022-11-20T08:47:37;29.52;;;16.85;;
55053;SDS011;40954;45.668;18.980;2022-11-20T08:50:03;26.15;;;17.50;;
55053;SDS011;40954;45.668;18.980;2022-11-20T08:52:29;27.88;;;17.52;;
55053;SDS011;40954;45.668;18.980;2022-11-20T08:54:55;26.77;;;16.48;;
55053;SDS011;40954;45.668;18.980;2022-11-20T08:57:21;28.10;;;17.48;;
55053;SDS011;40954;45.668;18.980;2022-11-20T08:59:48;26.90;;;15.80;;
55053;SDS011;40954;45.668;18.980;2022-11-20T09:02:14;22.25;;;16.25;;
55053;SDS011;40954;45.668;18.980;2022-11-20T09:04:40;26.63;;;17.02;;
55053;SDS011;40954;45.668;18.980;2022-11-20T09:07:06;23.38;;;16.42;;
55053;SDS011;40954;45.668;18.980;2022-11-20T09:09:32;21.92;;;16.80;;
55053;SDS011;40954;45.668;18.980;2022-11-20T09:11:58;24.48;;;17.65;;
55053;SDS011;40954;45.668;18.980;2022-11-20T09:14:24;24.98;;;17.23;;
55053;SDS011;40954;45.668;18.980;2022-11-20T09:16:54;24.90;;;17.30;;
55053;SDS011;40954;45.668;18.980;2022-11-20T09:19:20;27.45;;;18.13;;
55053;SDS011;40954;45.668;18.980;2022-11-20T09:21:46;28.00;;;18.35;;
55053;SDS011;40954;45.668;18.980;2022-11-20T09:24:12;30.65;;;18.15;;
55053;SDS011;40954;45.668;18.980;2022-11-20T09:26:38;24.65;;;17.45;;
55053;SDS011;40954;45.668;18.980;2022-11-20T09:29:04;23.95;;;15.30;;
55053;SDS011;40954;45.668;18.980;2022-11-20T09:31:30;24.85;;;17.35;;
55053;SDS011;40954;45.668;18.980;2022-11-20T09:33:57;25.15;;;17.98;;
55053;SDS011;40954;45.668;18.980;2022-11-20T09:36:23;26.02;;;16.88;;
55053;SDS011;40954;45.668;18.980;2022-11-20T09:38:49;24.40;;;17.40;;
55053;SDS011;40954;45.668;18.980;2022-11-20T09:41:34;26.52;;;17.63;;
55053;SDS011;40954;45.668;18.980;2022-11-20T09:44:09;26.13;;;17.88;;
55053;SDS011;40954;45.668;18.980;2022-11-20T09:46:42;22.77;;;16.52;;
55053;SDS011;40954;45.668;18.980;2022-11-20T09:54:16;26.70;;;16.70;;
55053;SDS011;40954;45.668;18.980;2022-11-20T09:56:44;23.42;;;16.08;;
55053;SDS011;40954;45.668;18.980;2022-11-20T09:59:56;23.85;;;15.93;;
55053;SDS011;40954;45.668;18.980;2022-11-20T10:01:57;22.00;;;16.17;;
55053;SDS011;40954;45.668;18.980;2022-11-20T10:04:23;23.60;;;15.68;;
55053;SDS011;40954;45.668;18.980;2022-11-20T10:07:03;30.35;;;14.63;;
55053;SDS011;40954;45.668;18.980;2022-11-20T10:09:32;21.33;;;15.88;;
55053;SDS011;40954;45.668;18.980;2022-11-20T10:12:11;24.98;;;17.85;;
55053;SDS011;40954;45.668;18.980;2022-11-20T10:14:45;24.48;;;16.77;;
55053;SDS011;40954;45.668;18.980;2022-11-20T10:17:18;21.63;;;16.55;;
55053;SDS011;40954;45.668;18.980;2022-11-20T10:19:50;21.08;;;15.18;;
55053;SDS011;40954;45.668;18.980;2022-11-20T10:29:45;20.67;;;15.18;;
55053;SDS011;40954;45.668;18.980;2022-11-20T10:32:16;24.00;;;16.38;;
55053;SDS011;40954;45.668;18.980;2022-11-20T10:37:22;26.63;;;18.15;;
55053;SDS011;40954;45.668;18.980;2022-11-20T10:42:16;32.80;;;23.83;;
55053;SDS011;40954;45.668;18.980;2022-11-20T10:44:46;24.98;;;16.98;;
55053;SDS011;40954;45.668;18.980;2022-11-20T10:47:30;28.45;;;19.13;;
55053;SDS011;40954;45.668;18.980;2022-11-20T10:49:57;25.15;;;17.85;;
55053;SDS011;40954;45.668;18.980;2022-11-20T10:55:24;24.42;;;17.35;;
55053;SDS011;40954;45.668;18.980;2022-11-20T10:57:58;20.07;;;14.90;;
55053;SDS011;40954;45.668;18.980;2022-11-20T11:00:26;23.33;;;15.88;;
55053;SDS011;40954;45.668;18.980;2022-11-20T11:02:53;32.72;;;22.23;;
55053;SDS011;40954;45.668;18.980;2022-11-20T11:05:41;25.48;;;18.02;;
55053;SDS011;40954;45.668;18.980;2022-11-20T11:08:13;25.00;;;17.92;;
55053;SDS011;40954;45.668;18.980;2022-11-20T11:10:47;20.58;;;16.45;;
55053;SDS011;40954;45.668;18.980;2022-11-20T11:13:21;27.92;;;19.20;;
55053;SDS011;40954;45.668;18.980;2022-11-20T11:15:48;28.75;;;19.77;;
55053;SDS011;40954;45.668;18.980;2022-11-20T11:18:25;25.27;;;18.73;;
55053;SDS011;40954;45.668;18.980;2022-11-20T11:20:52;21.75;;;16.15;;
55053;SDS011;40954;45.668;18.980;2022-11-20T11:23:28;26.00;;;19.92;;
55053;SDS011;40954;45.668;18.980;2022-11-20T11:25:58;23.15;;;17.70;;
55053;SDS011;40954;45.668;18.980;2022-11-20T11:28:25;24.20;;;20.08;;
55053;SDS011;40954;45.668;18.980;2022-11-20T11:30:52;27.48;;;20.52;;
55053;SDS011;40954;45.668;18.980;2022-11-20T11:33:29;27.08;;;19.77;;
55053;SDS011;40954;45.668;18.980;2022-11-20T11:35:56;27.15;;;20.15;;
55053;SDS011;40954;45.668;18.980;2022-11-20T11:38:28;25.55;;;19.35;;
55053;SDS011;40954;45.668;18.980;2022-11-20T11:40:55;27.90;;;19.98;;
55053;SDS011;40954;45.668;18.980;2022-11-20T11:43:23;30.45;;;21.30;;
55053;SDS011;40954;45.668;18.980;2022-11-20T11:46:23;31.25;;;19.05;;
55053;SDS011;40954;45.668;18.980;2022-11-20T11:51:38;27.85;;;17.98;;
55053;SDS011;40954;45.668;18.980;2022-11-20T11:54:09;26.23;;;18.48;;
55053;SDS011;40954;45.668;18.980;2022-11-20T11:56:37;26.08;;;17.95;;
55053;SDS011;40954;45.668;18.980;2022-11-20T11:59:04;31.98;;;20.70;;
55053;SDS011;40954;45.668;18.980;2022-11-20T12:04:13;40.03;;;17.52;;
55053;SDS011;40954;45.668;18.980;2022-11-20T12:06:43;24.38;;;17.58;;
55053;SDS011;40954;45.668;18.980;2022-11-20T12:09:10;24.52;;;17.10;;
55053;SDS011;40954;45.668;18.980;2022-11-20T12:16:53;28.50;;;18.60;;
55053;SDS011;40954;45.668;18.980;2022-11-20T12:19:22;29.38;;;20.33;;
55053;SDS011;40954;45.668;18.980;2022-11-20T12:32:04;23.10;;;17.48;;
55053;SDS011;40954;45.668;18.980;2022-11-20T12:37:17;29.75;;;20.23;;
55053;SDS011;40954;45.668;18.980;2022-11-20T12:39:49;29.73;;;18.00;;
55053;SDS011;40954;45.668;18.980;2022-11-20T12:53:02;27.48;;;18.33;;
55053;SDS011;40954;45.668;18.980;2022-11-20T13:00:43;29.40;;;19.30;;
55053;SDS011;40954;45.668;18.980;2022-11-20T13:03:26;32.00;;;20.25;;
55053;SDS011;40954;45.668;18.980;2022-11-20T13:05:59;28.77;;;18.23;;
55053;SDS011;40954;45.668;18.980;2022-11-20T13:08:29;31.83;;;19.40;;
55053;SDS011;40954;45.668;18.980;2022-11-20T13:10:59;36.97;;;22.02;;
55053;SDS011;40954;45.668;18.980;2022-11-20T13:13:33;35.72;;;23.17;;
55053;SDS011;40954;45.668;18.980;2022-11-20T13:18:30;31.95;;;20.88;;
55053;SDS011;40954;45.668;18.980;2022-11-20T13:21:00;29.15;;;20.48;;
55053;SDS011;40954;45.668;18.980;2022-11-20T13:23:27;40.92;;;24.60;;
55053;SDS011;40954;45.668;18.980;2022-11-20T13:26:03;29.58;;;21.20;;
55053;SDS011;40954;45.668;18.980;2022-11-20T13:28:30;25.98;;;19.13;;
55053;SDS011;40954;45.668;18.980;2022-11-20T13:30:57;26.25;;;17.73;;
55053;SDS011;40954;45.668;18.980;2022-11-20T13:33:43;30.52;;;19.25;;
55053;SDS011;40954;45.668;18.980;2022-11-20T13:36:21;30.17;;;19.52;;
55053;SDS011;40954;45.668;18.980;2022-11-20T13:38:51;26.42;;;18.65;;
55053;SDS011;40954;45.668;18.980;2022-11-20T13:43:53;26.90;;;18.05;;
55053;SDS011;40954;45.668;18.980;2022-11-20T13:46:22;28.50;;;20.08;;
55053;SDS011;40954;45.668;18.980;2022-11-20T13:48:50;31.20;;;20.80;;
55053;SDS011;40954;45.668;18.980;2022-11-20T13:54:40;35.70;;;22.05;;
55053;SDS011;40954;45.668;18.980;2022-11-20T14:02:19;33.17;;;20.42;;
55053;SDS011;40954;45.668;18.980;2022-11-20T14:04:47;28.67;;;19.83;;
55053;SDS011;40954;45.668;18.980;2022-11-20T14:07:13;34.17;;;20.77;;
55053;SDS011;40954;45.668;18.980;2022-11-20T14:09:48;31.20;;;21.48;;
55053;SDS011;40954;45.668;18.980;2022-11-20T14:12:15;32.72;;;23.02;;
55053;SDS011;40954;45.668;18.980;2022-11-20T14:14:49;34.50;;;23.23;;
55053;SDS011;40954;45.668;18.980;2022-11-20T14:17:24;33.30;;;21.05;;
55053;SDS011;40954;45.668;18.980;2022-11-20T14:19:51;30.45;;;20.23;;
55053;SDS011;40954;45.668;18.980;2022-11-20T14:24:44;36.80;;;23.00;;
55053;SDS011;40954;45.668;18.980;2022-11-20T14:27:29;34.13;;;22.77;;
55053;SDS011;40954;45.668;18.980;2022-11-20T14:29:55;33.20;;;21.73;;
55053;SDS011;40954;45.668;18.980;2022-11-20T14:32:21;34.38;;;22.33;;
55053;SDS011;40954;45.668;18.980;2022-11-20T14:34:51;29.67;;;20.45;;
55053;SDS011;40954;45.668;18.980;2022-11-20T14:37:23;36.28;;;21.40;;
55053;SDS011;40954;45.668;18.980;2022-11-20T14:39:51;31.27;;;19.85;;
55053;SDS011;40954;45.668;18.980;2022-11-20T14:42:18;28.00;;;18.15;;
55053;SDS011;40954;45.668;18.980;2022-11-20T14:44:44;31.63;;;19.73;;
55053;SDS011;40954;45.668;18.980;2022-11-20T14:47:15;30.45;;;18.40;;
55053;SDS011;40954;45.668;18.980;2022-11-20T14:49:43;27.38;;;17.30;;
55053;SDS011;40954;45.668;18.980;2022-11-20T14:52:13;26.60;;;17.17;;
55053;SDS011;40954;45.668;18.980;2022-11-20T14:54:47;25.55;;;17.52;;
55053;SDS011;40954;45.668;18.980;2022-11-20T14:59:48;24.73;;;16.52;;
55053;SDS011;40954;45.668;18.980;2022-11-20T15:02:14;24.90;;;17.70;;
55053;SDS011;40954;45.668;18.980;2022-11-20T15:07:22;27.85;;;18.27;;
55053;SDS011;40954;45.668;18.980;2022-11-20T15:09:58;29.27;;;18.88;;
55053;SDS011;40954;45.668;18.980;2022-11-20T15:12:24;30.77;;;19.50;;
55053;SDS011;40954;45.668;18.980;2022-11-20T15:14:51;26.67;;;18.55;;
55053;SDS011;40954;45.668;18.980;2022-11-20T15:17:17;30.65;;;18.67;;
55053;SDS011;40954;45.668;18.980;2022-11-20T15:19:43;28.52;;;19.13;;
55053;SDS011;40954;45.668;18.980;2022-11-20T15:22:10;31.08;;;20.00;;
55053;SDS011;40954;45.668;18.980;2022-11-20T15:24:41;21.60;;;14.88;;
55053;SDS011;40954;45.668;18.980;2022-11-20T15:27:07;30.20;;;19.30;;
55053;SDS011;40954;45.668;18.980;2022-11-20T15:29:33;28.52;;;18.83;;
55053;SDS011;40954;45.668;18.980;2022-11-20T15:32:00;28.00;;;19.02;;
55053;SDS011;40954;45.668;18.980;2022-11-20T15:34:26;26.42;;;18.05;;
55053;SDS011;40954;45.668;18.980;2022-11-20T15:36:52;28.20;;;19.25;;
55053;SDS011;40954;45.668;18.980;2022-11-20T15:39:19;28.27;;;17.48;;
55053;SDS011;40954;45.668;18.980;2022-11-20T15:41:45;35.17;;;25.30;;